Time;durP1;ratioP1;P1;durP2;ratioP2;P2;SDS_P1;SDS_P2;PMS_P1;PMS_P2;Temp;Humidity;BMP_temperature;BMP_pressure;BME280_temperature;BME280_humidity;BME280_pressure;Samples;Min_cycle;Max_cycle;Signal;HPM_P1;HPM_P2
2023/01/27 00:02:16;;;;;;;24.20;11.07;;;0.80;99.90;;;;;;5029404;28;20401;-64
2023/01/27 00:04:42;;;;;;;29.57;12.37;;;0.90;99.90;;;;;;5028639;28;20764;-63
2023/01/27 00:07:07;;;;;;;30.80;12.73;;;0.90;99.90;;;;;;5029595;28;20387;-64
2023/01/27 00:09:33;;;;;;;21.97;10.47;;;0.90;99.90;;;;;;5031517;28;20387;-64
2023/01/27 00:14:43;;;;;;;23.75;10.60;;;0.80;1.00;;;;;;5032596;28;20406;-64
2023/01/27 00:17:08;;;;;;;23.58;10.48;;;0.80;1.00;;;;;;5033019;28;20760;-64
2023/01/27 00:19:34;;;;;;;25.00;9.97;;;0.80;99.90;;;;;;5032553;28;20673;-64
2023/01/27 00:24:44;;;;;;;31.38;12.75;;;0.60;99.90;;;;;;5032217;28;20436;-63
2023/01/27 00:27:10;;;;;;;25.30;10.97;;;0.70;1.00;;;;;;5033330;28;20489;-66
2023/01/27 00:29:36;;;;;;;27.30;10.83;;;0.60;99.90;;;;;;5032294;28;20871;-66
2023/01/27 00:34:47;;;;;;;27.58;11.45;;;0.70;99.90;;;;;;5032460;28;20414;-67
2023/01/27 00:37:12;;;;;;;24.43;10.97;;;0.60;1.00;;;;;;5033162;28;20383;-67
2023/01/27 00:39:38;;;;;;;25.13;10.73;;;0.70;1.00;;;;;;5042564;28;20424;-64
2023/01/27 00:42:04;;;;;;;20.42;9.50;;;0.70;1.00;;;;;;5052980;28;20389;-65
2023/01/27 00:44:30;;;;;;;22.60;10.05;;;0.70;1.00;;;;;;5053023;28;20734;-65
2023/01/27 00:46:55;;;;;;;22.83;10.27;;;0.60;1.00;;;;;;5052454;28;20747;-65
2023/01/27 00:49:21;;;;;;;25.43;9.20;;;0.50;99.90;;;;;;5051990;28;20839;-63
2023/01/27 00:51:46;;;;;;;19.93;9.40;;;0.60;1.00;;;;;;5052171;28;20386;-65
2023/01/27 00:54:13;;;;;;;20.95;9.05;;;0.70;99.90;;;;;;5052904;28;20420;-65
2023/01/27 00:56:39;;;;;;;20.42;9.27;;;0.80;87.50;;;;;;5051775;28;20453;-65
2023/01/27 00:59:05;;;;;;;19.15;8.80;;;0.90;1.00;;;;;;5052498;28;20381;-65
2023/01/27 01:01:32;;;;;;;20.30;9.37;;;0.80;99.90;;;;;;5051888;28;20465;-65
2023/01/27 01:03:58;;;;;;;23.92;9.40;;;0.90;99.90;;;;;;5052647;28;20377;-64
2023/01/27 01:06:25;;;;;;;18.80;9.23;;;0.90;99.90;;;;;;5051484;28;20382;-65
2023/01/27 01:08:51;;;;;;;20.67;8.60;;;0.90;99.90;;;;;;5051031;28;20374;-63
2023/01/27 01:11:19;;;;;;;24.30;9.90;;;0.90;99.90;;;;;;5032647;28;20383;-63
2023/01/27 01:13:45;;;;;;;25.33;10.85;;;0.90;99.90;;;;;;5031949;28;20787;-63
2023/01/27 01:16:17;;;;;;;21.23;9.10;;;0.90;1.00;;;;;;5031814;28;20384;-64
2023/01/27 01:18:43;;;;;;;22.02;10.40;;;0.90;1.00;;;;;;5031054;28;20462;-65
2023/01/27 01:21:09;;;;;;;24.25;9.57;;;0.90;1.00;;;;;;5032124;28;20372;-63
2023/01/27 01:23:40;;;;;;;27.13;10.68;;;0.90;99.90;;;;;;5031226;28;20390;-63
2023/01/27 01:26:05;;;;;;;21.00;9.43;;;0.90;99.90;;;;;;5031396;28;20409;-63
2023/01/27 01:28:31;;;;;;;18.07;9.13;;;0.90;99.90;;;;;;5031459;28;20397;-63
2023/01/27 01:31:13;;;;;;;21.88;9.85;;;0.80;81.70;;;;;;5032209;28;20383;-64
2023/01/27 01:33:38;;;;;;;22.42;10.70;;;0.80;99.90;;;;;;5031253;28;20945;-63
2023/01/27 01:36:06;;;;;;;24.23;10.18;;;0.80;99.90;;;;;;5032165;28;20462;-63
2023/01/27 01:38:31;;;;;;;20.70;8.90;;;0.80;99.90;;;;;;5031346;28;20375;-63
2023/01/27 01:40:57;;;;;;;25.80;9.50;;;0.80;1.00;;;;;;5032036;28;20383;-63
2023/01/27 01:43:25;;;;;;;21.50;9.10;;;0.80;1.00;;;;;;5031553;28;20758;-62
2023/01/27 01:45:59;;;;;;;20.02;9.35;;;0.70;1.00;;;;;;5031602;28;20437;-63
2023/01/27 01:48:35;;;;;;;20.83;8.88;;;0.70;1.00;;;;;;5031525;28;20379;-64
2023/01/27 01:51:04;;;;;;;25.23;9.43;;;0.60;1.00;;;;;;5031038;28;20440;-63
2023/01/27 01:53:39;;;;;;;20.50;9.18;;;0.70;1.00;;;;;;5031150;28;20395;-65
2023/01/27 01:56:11;;;;;;;21.85;9.98;;;0.60;1.00;;;;;;5031968;28;20426;-64
2023/01/27 01:58:37;;;;;;;18.80;8.97;;;0.70;1.00;;;;;;5030885;28;20418;-63
2023/01/27 02:01:04;;;;;;;19.15;8.95;;;0.80;1.00;;;;;;5031508;28;20406;-63
2023/01/27 02:03:31;;;;;;;19.27;7.78;;;0.90;1.00;;;;;;5030324;28;20390;-63
2023/01/27 02:05:57;;;;;;;20.20;9.10;;;0.90;99.90;;;;;;5030619;28;20405;-64
2023/01/27 02:08:34;;;;;;;18.80;8.90;;;0.70;99.90;;;;;;5030322;28;20876;-63
2023/01/27 02:11:00;;;;;;;25.10;10.25;;;0.80;99.90;;;;;;5038342;28;20843;-64
2023/01/27 02:13:25;;;;;;;19.80;10.02;;;0.80;99.90;;;;;;5033913;28;20377;-63
2023/01/27 02:15:52;;;;;;;20.07;9.20;;;0.80;99.90;;;;;;5049533;28;20453;-63
2023/01/27 02:18:19;;;;;;;18.43;8.83;;;0.80;99.90;;;;;;5049753;28;20373;-65
2023/01/27 02:20:48;;;;;;;19.80;10.35;;;0.70;99.90;;;;;;5049735;28;20378;-63
2023/01/27 02:23:16;;;;;;;22.83;11.00;;;1.80;99.90;;;;;;5050663;28;20386;-65
2023/01/27 02:25:54;;;;;;;23.75;9.68;;;0.80;99.90;;;;;;5049353;28;20550;-63
2023/01/27 02:28:20;;;;;;;22.10;10.18;;;0.80;99.90;;;;;;5050321;28;20393;-63
2023/01/27 02:30:45;;;;;;;20.75;10.07;;;0.70;99.90;;;;;;5048954;28;20394;-63
2023/01/27 02:33:13;;;;;;;21.33;10.13;;;0.70;99.90;;;;;;5050291;28;20495;-64
2023/01/27 02:35:45;;;;;;;23.73;9.85;;;0.90;99.90;;;;;;5049460;28;20428;-64
2023/01/27 02:38:13;;;;;;;26.52;11.68;;;0.90;99.90;;;;;;5050176;28;20843;-64
2023/01/27 02:40:39;;;;;;;22.75;10.00;;;0.90;99.90;;;;;;5050146;28;20460;-63
2023/01/27 02:43:05;;;;;;;25.58;10.40;;;0.90;99.90;;;;;;5046486;28;20402;-64
2023/01/27 02:45:30;;;;;;;21.30;9.43;;;0.90;99.90;;;;;;5046526;28;20866;-64
2023/01/27 02:47:56;;;;;;;22.15;10.40;;;0.80;99.90;;;;;;5050462;28;20400;-64
2023/01/27 02:50:22;;;;;;;21.25;10.35;;;0.80;99.90;;;;;;5049905;28;20441;-63
2023/01/27 02:52:47;;;;;;;21.53;10.10;;;0.70;99.90;;;;;;5049564;28;20384;-63
2023/01/27 02:55:13;;;;;;;21.33;9.67;;;0.60;99.90;;;;;;5049740;28;20892;-64
2023/01/27 02:57:38;;;;;;;19.75;9.30;;;0.60;1.00;;;;;;5049881;28;20384;-64
2023/01/27 03:00:04;;;;;;;21.30;9.60;;;0.60;1.00;;;;;;5050575;28;20855;-63
2023/01/27 03:02:30;;;;;;;24.48;10.20;;;0.50;1.00;;;;;;5049646;28;20438;-63
2023/01/27 03:04:56;;;;;;;20.87;10.03;;;0.40;1.00;;;;;;5049898;28;20476;-63
2023/01/27 03:07:23;;;;;;;27.30;10.50;;;0.40;1.00;;;;;;5048817;28;20838;-62
2023/01/27 03:09:48;;;;;;;26.52;11.77;;;0.50;1.00;;;;;;5050571;28;20492;-63
2023/01/27 03:12:20;;;;;;;20.43;9.50;;;0.50;1.00;;;;;;5050264;28;20547;-63
2023/01/27 03:20:16;;;;;;;23.75;11.23;;;0.50;1.00;;;;;;5049896;28;20484;-63
2023/01/27 03:22:41;;;;;;;22.13;9.82;;;0.60;1.00;;;;;;5049212;28;20382;-63
2023/01/27 03:25:07;;;;;;;29.30;12.07;;;0.40;1.00;;;;;;5049713;28;20397;-63
2023/01/27 03:27:33;;;;;;;25.65;10.80;;;0.60;1.00;;;;;;5049024;28;20397;-63
2023/01/27 03:29:59;;;;;;;23.73;10.18;;;0.50;1.00;;;;;;5049802;28;20377;-63
2023/01/27 03:32:27;;;;;;;24.15;10.10;;;0.50;1.00;;;;;;5049233;28;20388;-62
2023/01/27 03:34:56;;;;;;;23.00;11.25;;;0.40;58.60;;;;;;5049512;28;20808;-63
2023/01/27 03:48:27;;;;;;;23.25;10.48;;;0.60;1.00;;;;;;5053196;28;20419;-63
2023/01/27 03:50:56;;;;;;;26.52;10.80;;;0.70;99.90;;;;;;5053924;28;20404;-63
2023/01/27 03:53:22;;;;;;;23.48;11.27;;;0.60;99.90;;;;;;5053739;28;20838;-63
2023/01/27 03:55:47;;;;;;;22.58;10.73;;;0.60;1.00;;;;;;5053523;28;20400;-63
2023/01/27 03:58:28;;;;;;;24.83;9.63;;;0.60;14.30;;;;;;5052320;28;20882;-63
2023/01/27 04:00:59;;;;;;;20.75;9.70;;;0.70;99.90;;;;;;5053655;28;20396;-63
2023/01/27 04:09:03;;;;;;;19.10;9.90;;;0.70;99.90;;;;;;5053362;28;20443;-63
2023/01/27 04:14:14;;;;;;;22.30;10.50;;;0.80;1.00;;;;;;5053161;28;20408;-64
2023/01/27 04:16:40;;;;;;;21.27;9.23;;;0.80;1.00;;;;;;5052349;28;20472;-64
2023/01/27 04:19:07;;;;;;;24.17;10.55;;;0.80;1.00;;;;;;5053530;28;20857;-64
2023/01/27 04:21:33;;;;;;;23.70;10.48;;;0.80;1.00;;;;;;5052629;28;20395;-64
2023/01/27 04:23:59;;;;;;;23.92;10.82;;;0.80;1.00;;;;;;5053175;28;20439;-64
2023/01/27 04:26:31;;;;;;;23.83;10.27;;;0.80;57.90;;;;;;5052862;28;20484;-63
2023/01/27 04:28:58;;;;;;;22.55;9.77;;;0.90;1.00;;;;;;5053029;28;20457;-64
2023/01/27 04:31:24;;;;;;;25.27;11.48;;;0.80;1.00;;;;;;5052979;28;20373;-63
2023/01/27 04:33:49;;;;;;;22.80;10.15;;;0.90;6.20;;;;;;5052925;28;20459;-64
2023/01/27 04:36:15;;;;;;;21.00;9.40;;;1.00;1.00;;;;;;5052936;28;20858;-64
2023/01/27 04:38:41;;;;;;;22.80;10.10;;;1.00;1.00;;;;;;5052309;28;20374;-64
2023/01/27 04:41:06;;;;;;;20.40;8.98;;;0.90;1.00;;;;;;5052751;28;20380;-64
2023/01/27 04:43:32;;;;;;;20.20;9.65;;;0.80;1.00;;;;;;5052627;28;20377;-64
2023/01/27 04:45:58;;;;;;;19.77;9.87;;;0.90;1.00;;;;;;5052682;28;20378;-63
2023/01/27 04:48:23;;;;;;;19.02;9.77;;;0.80;1.00;;;;;;5052240;28;20381;-63
2023/01/27 04:50:49;;;;;;;23.10;10.03;;;1.20;1.00;;;;;;5051383;28;20417;-63
2023/01/27 04:53:14;;;;;;;21.60;10.37;;;1.00;1.00;;;;;;5052600;28;20381;-64
2023/01/27 04:55:47;;;;;;;26.17;11.25;;;0.90;1.00;;;;;;5050460;28;20810;-63
2023/01/27 04:58:14;;;;;;;25.97;11.30;;;0.90;1.00;;;;;;5052456;28;20390;-64
2023/01/27 05:00:39;;;;;;;21.10;9.85;;;0.90;1.00;;;;;;5052139;28;20381;-64
2023/01/27 05:03:05;;;;;;;23.08;10.70;;;0.90;1.00;;;;;;5052258;28;20381;-63
2023/01/27 05:05:31;;;;;;;25.17;10.20;;;0.80;1.00;;;;;;5051784;28;20378;-64
2023/01/27 05:08:05;;;;;;;20.70;10.35;;;0.90;1.00;;;;;;5052357;28;20845;-55
2023/01/27 05:10:31;;;;;;;23.15;11.40;;;1.00;1.00;;;;;;5034117;28;20771;-56
2023/01/27 05:12:57;;;;;;;19.30;9.32;;;1.20;1.00;;;;;;5050778;28;20378;-55
2023/01/27 05:15:23;;;;;;;22.75;10.13;;;1.10;1.00;;;;;;5049854;28;20486;-55
2023/01/27 05:17:49;;;;;;;23.60;11.15;;;1.20;1.00;;;;;;5052263;28;20378;-56
2023/01/27 05:20:15;;;;;;;26.20;11.13;;;1.20;1.00;;;;;;5052346;28;20430;-57
2023/01/27 05:22:41;;;;;;;25.55;10.07;;;1.30;1.00;;;;;;5049773;28;20393;-60
2023/01/27 05:25:07;;;;;;;24.00;11.13;;;1.10;1.00;;;;;;5039365;28;20410;-57
2023/01/27 05:27:33;;;;;;;26.27;10.52;;;1.20;1.00;;;;;;5044737;28;20810;-57
2023/01/27 05:29:59;;;;;;;20.15;10.18;;;1.20;1.00;;;;;;5053776;28;20515;-57
2023/01/27 05:32:24;;;;;;;21.98;10.60;;;1.20;99.90;;;;;;5056400;28;20429;-64
2023/01/27 05:34:50;;;;;;;23.77;10.57;;;1.10;99.90;;;;;;5044683;28;20886;-66
2023/01/27 05:37:15;;;;;;;22.63;10.43;;;1.30;99.90;;;;;;5036371;28;20466;-66
2023/01/27 05:39:41;;;;;;;18.08;8.38;;;1.10;99.90;;;;;;5051169;28;20457;-63
2023/01/27 05:42:07;;;;;;;15.87;7.63;;;0.90;99.90;;;;;;5048541;28;20397;-63
2023/01/27 05:44:32;;;;;;;21.67;9.05;;;0.80;1.00;;;;;;5067282;28;20415;-63
2023/01/27 05:46:58;;;;;;;18.55;9.20;;;1.00;1.00;;;;;;5070042;28;20416;-63
2023/01/27 05:49:23;;;;;;;17.37;8.67;;;0.70;1.00;;;;;;5051471;28;20389;-64
2023/01/27 05:51:49;;;;;;;19.88;9.32;;;0.60;59.00;;;;;;5050676;28;20857;-64
2023/01/27 05:54:14;;;;;;;22.10;9.40;;;0.60;1.00;;;;;;5058503;28;20423;-64
2023/01/27 05:56:40;;;;;;;21.83;9.97;;;0.70;1.00;;;;;;5067480;28;20470;-64
2023/01/27 05:59:06;;;;;;;21.75;8.88;;;0.80;1.00;;;;;;5038113;28;20416;-64
2023/01/27 06:01:33;;;;;;;18.98;8.10;;;1.00;1.00;;;;;;5036460;28;20380;-64
2023/01/27 06:03:59;;;;;;;19.52;8.43;;;0.80;1.00;;;;;;5031122;28;20383;-63
2023/01/27 06:06:27;;;;;;;18.75;8.55;;;0.70;1.00;;;;;;5039154;28;20897;-62
2023/01/27 06:08:53;;;;;;;18.88;7.88;;;0.70;1.00;;;;;;5050898;28;20964;-63
2023/01/27 06:11:20;;;;;;;18.63;8.32;;;0.70;1.00;;;;;;5056315;28;20465;-63
2023/01/27 06:13:47;;;;;;;16.08;7.43;;;0.80;1.00;;;;;;5046624;28;20502;-63
2023/01/27 06:16:16;;;;;;;18.98;7.70;;;0.90;1.00;;;;;;5042602;28;20416;-63
2023/01/27 06:18:42;;;;;;;20.42;8.43;;;0.90;1.00;;;;;;5050029;28;20924;-63
2023/01/27 06:21:09;;;;;;;15.90;7.47;;;0.90;1.00;;;;;;5051244;28;20413;-63
2023/01/27 06:23:35;;;;;;;22.93;10.60;;;0.80;1.00;;;;;;5046969;28;20403;-63
2023/01/27 06:26:04;;;;;;;20.03;9.63;;;0.90;1.00;;;;;;5037379;28;20416;-63
2023/01/27 06:28:29;;;;;;;23.73;10.55;;;0.90;99.90;;;;;;5045308;28;20389;-63
2023/01/27 06:31:02;;;;;;;25.15;10.13;;;0.90;99.90;;;;;;5050047;28;20389;-63
2023/01/27 06:33:28;;;;;;;15.43;8.30;;;0.80;1.00;;;;;;5049597;28;21234;-63
2023/01/27 06:36:00;;;;;;;22.50;9.15;;;0.90;1.00;;;;;;5050481;28;20468;-63
2023/01/27 06:38:26;;;;;;;21.67;9.02;;;0.90;1.00;;;;;;5049817;28;20382;-64
2023/01/27 06:40:52;;;;;;;27.98;10.05;;;0.80;1.00;;;;;;5050283;28;20393;-64
2023/01/27 06:43:17;;;;;;;22.80;10.30;;;0.80;1.00;;;;;;5047142;28;20409;-64
2023/01/27 06:45:43;;;;;;;21.23;8.97;;;1.90;1.00;;;;;;5029553;28;20423;-64
2023/01/27 06:48:08;;;;;;;16.80;7.82;;;0.90;1.00;;;;;;5030622;28;20845;-63
2023/01/27 06:50:35;;;;;;;22.33;9.30;;;0.80;99.90;;;;;;5029511;28;20387;-63
2023/01/27 06:53:05;;;;;;;18.95;8.98;;;0.70;1.00;;;;;;5045385;28;20401;-63
2023/01/27 06:55:31;;;;;;;21.67;10.05;;;0.80;1.00;;;;;;5032147;28;20903;-63
2023/01/27 06:57:57;;;;;;;27.92;11.55;;;0.80;1.00;;;;;;5046601;28;20386;-63
2023/01/27 07:00:23;;;;;;;18.80;9.43;;;0.80;1.00;;;;;;5039102;28;20871;-63
2023/01/27 07:02:49;;;;;;;22.45;9.60;;;0.90;1.00;;;;;;5029753;28;20433;-62
2023/01/27 07:05:15;;;;;;;22.40;9.25;;;1.00;1.00;;;;;;5042047;28;20416;-63
2023/01/27 07:07:40;;;;;;;22.25;9.25;;;0.90;1.00;;;;;;5049566;28;21229;-63
2023/01/27 07:10:07;;;;;;;20.90;9.25;;;0.90;1.00;;;;;;5049541;28;20381;-63
2023/01/27 07:12:36;;;;;;;22.05;8.80;;;0.90;1.00;;;;;;5049181;28;20847;-63
2023/01/27 07:15:04;;;;;;;23.10;8.70;;;0.80;1.00;;;;;;5052188;28;20415;-63
2023/01/27 07:17:29;;;;;;;21.23;8.75;;;0.80;1.00;;;;;;5068790;28;20388;-64
2023/01/27 07:19:55;;;;;;;19.23;8.30;;;0.80;1.00;;;;;;5069990;28;21111;-63
2023/01/27 07:22:20;;;;;;;17.53;7.33;;;0.80;1.00;;;;;;5064188;28;20393;-63
2023/01/27 07:24:46;;;;;;;18.10;7.80;;;0.60;1.00;;;;;;5048476;28;20442;-63
2023/01/27 07:27:11;;;;;;;16.52;7.60;;;0.40;34.10;;;;;;5049527;28;20415;-64
2023/01/27 07:29:37;;;;;;;19.30;8.57;;;0.40;99.90;;;;;;5049134;28;20405;-64
2023/01/27 07:32:03;;;;;;;18.57;7.10;;;0.50;99.90;;;;;;5048428;28;20432;-65
2023/01/27 07:34:28;;;;;;;18.10;7.78;;;0.70;1.00;;;;;;5048992;28;20408;-65
2023/01/27 07:36:54;;;;;;;16.13;7.73;;;0.50;1.00;;;;;;5049477;28;20389;-64
2023/01/27 07:39:19;;;;;;;18.63;6.85;;;0.40;1.00;;;;;;5049315;28;20395;-65
2023/01/27 07:41:48;;;;;;;16.70;7.18;;;0.50;1.00;;;;;;5047311;28;20420;-65
2023/01/27 07:44:14;;;;;;;16.20;8.07;;;0.50;1.00;;;;;;5049661;28;20397;-64
2023/01/27 07:46:39;;;;;;;22.08;7.90;;;0.60;1.00;;;;;;5048890;28;20385;-65
2023/01/27 07:49:05;;;;;;;16.10;6.40;;;0.60;1.00;;;;;;5049519;28;20394;-65
2023/01/27 07:51:30;;;;;;;15.63;5.90;;;0.70;1.00;;;;;;5048652;28;20523;-65
2023/01/27 07:53:56;;;;;;;18.02;6.72;;;0.60;99.90;;;;;;5049503;28;20405;-65
2023/01/27 07:56:21;;;;;;;18.00;7.47;;;0.30;99.90;;;;;;5049318;28;20396;-65
2023/01/27 07:58:47;;;;;;;17.67;7.57;;;0.70;99.90;;;;;;5048780;28;20417;-65
2023/01/27 08:01:13;;;;;;;18.63;7.07;;;0.70;1.00;;;;;;5048967;28;20427;-65
2023/01/27 08:03:38;;;;;;;20.60;7.77;;;0.80;99.90;;;;;;5048619;28;20377;-65
2023/01/27 08:06:09;;;;;;;16.25;7.43;;;0.70;99.90;;;;;;5065582;28;20392;-65
2023/01/27 08:08:35;;;;;;;17.80;7.40;;;0.80;99.90;;;;;;5047429;28;20511;-65
2023/01/27 08:11:02;;;;;;;17.87;8.10;;;0.70;99.90;;;;;;5046901;28;20377;-65
2023/01/27 08:13:28;;;;;;;19.38;7.47;;;0.80;99.90;;;;;;5048499;28;20392;-65
2023/01/27 08:15:58;;;;;;;18.42;7.45;;;0.80;99.90;;;;;;5049091;28;20865;-65
2023/01/27 08:18:25;;;;;;;15.10;8.02;;;0.80;99.90;;;;;;5048512;28;20854;-65
2023/01/27 08:20:53;;;;;;;16.83;7.63;;;0.90;99.90;;;;;;5044694;28;21021;-65
2023/01/27 08:23:20;;;;;;;23.35;9.60;;;1.00;99.90;;;;;;5034344;28;20429;-65
2023/01/27 08:25:50;;;;;;;22.23;8.80;;;1.10;99.90;;;;;;5027642;28;20769;-65
2023/01/27 08:28:17;;;;;;;30.85;10.93;;;1.00;99.90;;;;;;5029110;28;20383;-65
2023/01/27 08:30:43;;;;;;;17.08;6.88;;;0.80;99.90;;;;;;5030349;28;20481;-65
2023/01/27 08:33:08;;;;;;;18.25;7.55;;;0.70;99.90;;;;;;5032369;28;20458;-65
2023/01/27 08:35:35;;;;;;;19.02;7.57;;;0.70;99.90;;;;;;5031669;28;20406;-65
2023/01/27 08:38:01;;;;;;;17.02;6.93;;;1.00;99.90;;;;;;5032655;28;20771;-65
2023/01/27 08:40:27;;;;;;;21.07;7.63;;;0.90;99.90;;;;;;5045634;28;20396;-65
2023/01/27 08:42:52;;;;;;;20.10;7.63;;;0.90;99.90;;;;;;5071498;28;20386;-65
2023/01/27 08:45:18;;;;;;;16.90;7.68;;;1.00;99.90;;;;;;5071749;28;20411;-64
2023/01/27 08:47:44;;;;;;;17.17;6.50;;;1.00;95.00;;;;;;5071373;28;20384;-65
2023/01/27 08:50:10;;;;;;;20.85;8.70;;;1.00;93.50;;;;;;5072644;28;20393;-64
2023/01/27 08:52:36;;;;;;;18.20;7.10;;;1.10;85.50;;;;;;5071526;28;20462;-65
2023/01/27 08:55:01;;;;;;;18.73;7.07;;;1.10;99.90;;;;;;5072435;28;20532;-64
2023/01/27 08:57:27;;;;;;;17.55;8.02;;;1.20;37.00;;;;;;5072366;28;20415;-64
2023/01/27 08:59:53;;;;;;;16.40;7.10;;;1.20;21.90;;;;;;5071760;28;20387;-64
2023/01/27 09:02:21;;;;;;;16.27;7.10;;;1.40;1.00;;;;;;5072064;28;20441;-65
2023/01/27 09:04:46;;;;;;;18.08;6.32;;;1.20;1.00;;;;;;5071106;28;20387;-65
2023/01/27 09:07:12;;;;;;;20.73;7.50;;;1.30;1.00;;;;;;5032071;28;20492;-65
2023/01/27 09:09:37;;;;;;;17.90;7.03;;;1.10;1.00;;;;;;5046623;28;20407;-64
2023/01/27 09:12:03;;;;;;;17.37;7.63;;;1.10;1.00;;;;;;5032174;28;20426;-64
2023/01/27 09:14:29;;;;;;;22.15;7.45;;;1.20;1.00;;;;;;5044912;28;20482;-64
2023/01/27 09:16:54;;;;;;;16.20;6.80;;;1.10;1.00;;;;;;5052552;28;20402;-64
2023/01/27 09:19:20;;;;;;;17.00;7.10;;;1.00;1.00;;;;;;5052020;28;20374;-64
2023/01/27 09:21:46;;;;;;;17.58;6.75;;;0.90;1.00;;;;;;5051067;28;20903;-64
2023/01/27 09:24:16;;;;;;;17.70;7.57;;;0.90;1.00;;;;;;5051757;28;20432;-64
2023/01/27 09:26:42;;;;;;;17.98;7.28;;;1.00;17.10;;;;;;5051409;28;20408;-64
2023/01/27 09:29:08;;;;;;;16.42;6.82;;;1.00;1.00;;;;;;5051911;28;20755;-65
2023/01/27 09:31:33;;;;;;;22.75;8.32;;;1.10;1.00;;;;;;5050981;28;20382;-64
2023/01/27 09:33:59;;;;;;;19.10;7.67;;;1.20;1.00;;;;;;5051741;28;20431;-65
2023/01/27 09:36:25;;;;;;;20.67;7.97;;;1.10;1.00;;;;;;5051541;28;20393;-64
2023/01/27 09:38:54;;;;;;;19.42;8.23;;;1.10;1.00;;;;;;5050709;28;20377;-65
2023/01/27 09:41:54;;;;;;;19.02;7.60;;;1.10;1.00;;;;;;5051296;28;20381;-65
2023/01/27 09:44:22;;;;;;;23.13;7.78;;;1.20;1.00;;;;;;5051558;28;20388;-65
2023/01/27 09:47:06;;;;;;;24.60;8.27;;;1.20;1.00;;;;;;5050454;28;20386;-64
2023/01/27 09:50:13;;;;;;;26.25;8.40;;;1.30;1.00;;;;;;5050750;28;20382;-65
2023/01/27 09:53:00;;;;;;;18.17;7.50;;;1.40;1.00;;;;;;5050963;28;20431;-64
2023/01/27 09:55:44;;;;;;;19.25;7.18;;;1.50;1.00;;;;;;5050918;28;20460;-65
2023/01/27 09:58:17;;;;;;;19.95;7.57;;;1.50;1.00;;;;;;5050887;28;20432;-64
2023/01/27 10:01:17;;;;;;;16.10;5.60;;;1.50;1.00;;;;;;5050842;28;20385;-65
2023/01/27 10:04:06;;;;;;;17.93;7.60;;;1.60;1.00;;;;;;5050076;28;20389;-65
2023/01/27 10:06:38;;;;;;;15.80;6.90;;;1.70;1.00;;;;;;5050031;28;20378;-65
2023/01/27 10:09:37;;;;;;;18.90;6.90;;;1.90;1.00;;;;;;5051256;28;20372;-65
2023/01/27 10:12:14;;;;;;;21.58;7.68;;;2.10;1.00;;;;;;5050840;28;20511;-65
2023/01/27 10:15:16;;;;;;;17.50;6.80;;;2.20;1.00;;;;;;5049881;28;20894;-64
2023/01/27 10:17:58;;;;;;;17.80;6.47;;;2.10;99.90;;;;;;5050379;28;20477;-65
2023/01/27 10:20:34;;;;;;;15.02;7.07;;;2.10;99.90;;;;;;5050571;28;20393;-65
2023/01/27 10:23:06;;;;;;;17.00;6.25;;;2.20;99.90;;;;;;5050747;28;20392;-65
2023/01/27 10:25:50;;;;;;;14.30;5.80;;;2.10;99.90;;;;;;5049732;28;20886;-65
2023/01/27 10:28:22;;;;;;;16.15;6.68;;;2.10;99.90;;;;;;5052740;28;20419;-65
2023/01/27 10:31:06;;;;;;;16.17;6.40;;;2.20;99.90;;;;;;5049900;28;20885;-63
2023/01/27 10:33:36;;;;;;;15.83;7.00;;;2.30;99.90;;;;;;5050041;28;20420;-63
2023/01/27 10:36:13;;;;;;;16.92;6.50;;;2.60;99.90;;;;;;5050376;28;20404;-63
2023/01/27 10:39:24;;;;;;;19.60;7.75;;;2.40;99.90;;;;;;5049640;28;20464;-64
2023/01/27 10:42:03;;;;;;;19.30;7.60;;;2.50;99.90;;;;;;5049558;28;20392;-64
2023/01/27 10:44:45;;;;;;;16.83;7.03;;;2.50;99.90;;;;;;5030586;28;20828;-63
2023/01/27 10:47:25;;;;;;;28.92;10.02;;;2.40;99.90;;;;;;5030531;28;20383;-63
2023/01/27 10:49:56;;;;;;;20.58;7.70;;;2.30;99.90;;;;;;5029599;28;20518;-63
2023/01/27 10:52:47;;;;;;;16.77;7.50;;;2.30;99.90;;;;;;5029649;28;20394;-64
2023/01/27 10:55:16;;;;;;;14.63;6.00;;;2.30;99.90;;;;;;5025081;28;20474;-63
2023/01/27 10:57:54;;;;;;;15.68;6.60;;;2.40;99.90;;;;;;5029338;28;20391;-64
2023/01/27 11:00:36;;;;;;;15.47;6.10;;;2.20;99.90;;;;;;5030562;28;20379;-64
2023/01/27 11:03:20;;;;;;;18.15;7.20;;;2.30;99.90;;;;;;5029785;28;20484;-63
2023/01/27 11:05:51;;;;;;;20.58;7.65;;;2.30;99.90;;;;;;5046828;28;20409;-63
2023/01/27 11:08:20;;;;;;;16.40;6.43;;;2.20;99.90;;;;;;5049976;28;20464;-63
2023/01/27 11:13:34;;;;;;;17.83;6.43;;;1.90;99.90;;;;;;5049158;28;20915;-64
2023/01/27 11:16:03;;;;;;;14.40;6.40;;;1.80;99.90;;;;;;5049770;28;20504;-63
2023/01/27 11:18:31;;;;;;;19.45;6.00;;;2.40;99.90;;;;;;5049766;28;20855;-63
2023/01/27 11:21:09;;;;;;;16.33;6.90;;;1.60;99.90;;;;;;5049580;28;20491;-63
2023/01/27 11:23:42;;;;;;;17.65;6.78;;;1.70;99.90;;;;;;5049150;28;20835;-63
2023/01/27 11:26:30;;;;;;;19.50;6.97;;;1.50;99.90;;;;;;5049505;28;20406;-63
2023/01/27 11:29:27;;;;;;;14.32;5.50;;;1.70;99.90;;;;;;5049151;28;20503;-63
2023/01/27 11:32:22;;;;;;;21.48;8.20;;;1.50;99.90;;;;;;5049110;28;20950;-64
2023/01/27 11:35:07;;;;;;;14.73;6.90;;;1.50;99.90;;;;;;5048605;28;20409;-63
2023/01/27 11:37:41;;;;;;;20.80;7.55;;;1.60;99.90;;;;;;5049391;28;20754;-63
2023/01/27 11:40:16;;;;;;;18.70;7.30;;;1.80;99.90;;;;;;5050912;28;20409;-66
2023/01/27 11:42:42;;;;;;;21.97;7.17;;;1.70;99.90;;;;;;5048686;28;20475;-66
2023/01/27 11:45:14;;;;;;;18.67;7.23;;;1.80;99.90;;;;;;5049223;28;20447;-63
2023/01/27 11:47:41;;;;;;;18.75;8.20;;;1.90;99.90;;;;;;5048512;28;20381;-64
2023/01/27 11:50:14;;;;;;;17.10;7.20;;;2.10;99.90;;;;;;5049159;28;20859;-64
2023/01/27 11:52:39;;;;;;;21.52;8.07;;;2.20;99.90;;;;;;5048696;28;20527;-64
2023/01/27 11:55:19;;;;;;;19.90;7.73;;;1.90;99.90;;;;;;5049367;28;20965;-64
2023/01/27 11:58:12;;;;;;;22.73;8.38;;;2.10;99.90;;;;;;5048614;28;20393;-63
2023/01/27 12:00:43;;;;;;;20.65;8.52;;;2.00;99.90;;;;;;5048760;28;20595;-65
2023/01/27 12:03:40;;;;;;;19.95;8.38;;;2.00;99.90;;;;;;5049897;28;20396;-64
2023/01/27 12:06:14;;;;;;;21.40;8.87;;;2.10;99.90;;;;;;5053680;28;20381;-64
2023/01/27 12:08:45;;;;;;;21.48;9.45;;;2.30;99.90;;;;;;5052598;28;20382;-64
2023/01/27 12:11:26;;;;;;;17.93;8.33;;;2.30;99.90;;;;;;5053132;28;20902;-63
2023/01/27 12:13:56;;;;;;;17.83;7.55;;;2.00;99.90;;;;;;5052129;28;20394;-63
2023/01/27 12:16:39;;;;;;;19.88;8.18;;;2.00;99.90;;;;;;5052743;28;20425;-63
2023/01/27 12:19:20;;;;;;;18.88;8.90;;;1.90;99.90;;;;;;5052766;28;20476;-64
2023/01/27 12:21:49;;;;;;;19.13;8.52;;;2.10;99.90;;;;;;5043135;28;20405;-65
2023/01/27 12:24:29;;;;;;;26.58;9.88;;;1.90;99.90;;;;;;5052574;28;20393;-63
2023/01/27 12:26:56;;;;;;;21.20;9.10;;;2.00;99.90;;;;;;5052267;28;20467;-63
2023/01/27 12:29:33;;;;;;;21.35;8.43;;;1.90;99.90;;;;;;5053007;28;20869;-66
2023/01/27 12:31:59;;;;;;;22.67;8.43;;;1.80;99.90;;;;;;5052616;28;20469;-66
2023/01/27 12:34:38;;;;;;;20.77;8.20;;;1.80;99.90;;;;;;5052548;28;20870;-64
2023/01/27 12:37:06;;;;;;;18.40;8.00;;;1.80;99.90;;;;;;5052506;28;20387;-64
2023/01/27 12:40:23;;;;;;;18.37;8.20;;;1.80;99.90;;;;;;5052595;28;20408;-64
2023/01/27 12:43:01;;;;;;;19.30;8.43;;;1.90;99.90;;;;;;4989619;28;20437;-64
2023/01/27 12:45:33;;;;;;;17.20;8.35;;;2.10;99.90;;;;;;4991147;28;20390;-63
2023/01/27 12:48:00;;;;;;;21.77;8.82;;;2.10;99.90;;;;;;5032887;28;20437;-64
2023/01/27 12:50:32;;;;;;;17.83;7.25;;;2.10;99.90;;;;;;5049091;28;20405;-64
2023/01/27 12:53:18;;;;;;;21.45;9.70;;;2.00;99.90;;;;;;5045307;28;20420;-64
2023/01/27 12:55:55;;;;;;;19.35;7.63;;;2.00;99.90;;;;;;5033562;28;20450;-64
2023/01/27 12:58:40;;;;;;;19.40;8.00;;;2.10;99.90;;;;;;5041269;28;20400;-64
2023/01/27 13:01:29;;;;;;;18.10;7.40;;;2.00;99.90;;;;;;5039586;28;20949;-63
2023/01/27 13:04:27;;;;;;;16.70;7.05;;;1.90;99.90;;;;;;5051400;28;20461;-63
2023/01/27 13:07:06;;;;;;;17.65;7.07;;;1.80;99.90;;;;;;5032471;28;20879;-64
2023/01/27 13:09:38;;;;;;;16.55;7.65;;;1.70;99.90;;;;;;5038712;28;20833;-64
2023/01/27 13:12:29;;;;;;;18.42;8.05;;;1.80;99.90;;;;;;5039930;28;20407;-65
2023/01/27 13:15:08;;;;;;;17.20;7.70;;;1.80;99.90;;;;;;5043428;28;20482;-67
2023/01/27 13:17:40;;;;;;;17.70;7.80;;;1.90;99.90;;;;;;5048862;28;20418;-67
2023/01/27 13:20:44;;;;;;;17.17;8.18;;;1.80;99.90;;;;;;5033017;28;20415;-65
2023/01/27 13:23:21;;;;;;;15.82;7.20;;;1.90;99.90;;;;;;5052141;28;20397;-67
2023/01/27 13:26:08;;;;;;;14.98;6.70;;;1.80;99.90;;;;;;5051236;28;20424;-64
2023/01/27 13:29:12;;;;;;;18.05;8.15;;;2.00;99.90;;;;;;5041464;28;20882;-69
2023/01/27 13:32:02;;;;;;;18.30;7.72;;;2.10;99.90;;;;;;5016898;28;20436;-69
2023/01/27 13:34:35;;;;;;;14.98;7.30;;;2.20;99.90;;;;;;5038846;28;20878;-68
2023/01/27 13:37:20;;;;;;;14.93;6.10;;;2.00;99.90;;;;;;5047070;28;20871;-68
2023/01/27 13:40:02;;;;;;;15.10;6.18;;;1.90;99.90;;;;;;5052998;28;20818;-68
2023/01/27 13:42:46;;;;;;;14.02;6.38;;;1.80;99.90;;;;;;5054200;28;20403;-68